LFLL/LYS METAR and TAF weather

Enter ICAO airport designator
Station Type Date Time Source
LFLL METAR 2018/12/15 21:30 UTC NOAA

LFLL 152130Z 15008KT 5000 -RA SCT043 OVC076 02/00 Q1018 TEMPO 4000


Station Type Date Time Source
LFLL Decoded METAR 2018/12/15 21:30 UTC NOAA

Lyon / Satolas, France (LFLL) 45-44N 005-05E 240M
Dec 15, 2018 - 04:30 PM EST / 2018.12.15 2130 UTC
Wind: from the SSE (150 degrees) at 9 MPH (8 KT):0
Visibility: 3 mile(s):0
Sky conditions: overcast
Weather: light rain
Temperature: 35 F (2 C)
Windchill: 28 F (-2 C):1
Dew Point: 32 F (0 C)
Relative Humidity: 86%
Pressure (altimeter): 30.06 in. Hg (1018 hPa)
ob: LFLL 152130Z 15008KT 5000 -RA SCT043 OVC076 02/00 Q1018 TEMPO 4000
cycle: 21

Station Type Date Time Source
LFLL TAF 2018/12/15 18:21 UTC NOAA

TAF LFLL 151700Z 1518/1624 16006KT 8000 NSC
BECMG 1518/1520 -RA OVC040
TEMPO 1521/1602 4000 RA BKN009 OVC025 PROB40
TEMPO 1605/1608 3000 BR BKN003
BECMG 1608/1610 VRB03KT NSW BKN015 PROB40
TEMPO 1612/1624 4000 -RA BKN005


Example: see airport list